sensor_id;sensor_type;location;lat;lon;timestamp;temperature;humidity
14210;DHT22;7188;56.070;12.698;2023-12-20T00:01:05;4.30;99.90
14210;DHT22;7188;56.070;12.698;2023-12-20T00:03:30;4.40;99.90
14210;DHT22;7188;56.070;12.698;2023-12-20T00:06:09;4.30;99.90
14210;DHT22;7188;56.070;12.698;2023-12-20T00:08:44;4.30;99.90
14210;DHT22;7188;56.070;12.698;2023-12-20T00:11:09;4.30;99.90
14210;DHT22;7188;56.070;12.698;2023-12-20T00:13:35;4.30;99.90
14210;DHT22;7188;56.070;12.698;2023-12-20T00:16:00;4.30;99.90
14210;DHT22;7188;56.070;12.698;2023-12-20T00:18:26;4.40;99.90
14210;DHT22;7188;56.070;12.698;2023-12-20T00:20:51;4.40;99.90
14210;DHT22;7188;56.070;12.698;2023-12-20T00:23:17;4.40;99.90
14210;DHT22;7188;56.070;12.698;2023-12-20T00:25:43;4.40;99.90
14210;DHT22;7188;56.070;12.698;2023-12-20T00:28:08;4.40;99.90
14210;DHT22;7188;56.070;12.698;2023-12-20T00:30:34;4.40;99.90
14210;DHT22;7188;56.070;12.698;2023-12-20T00:32:59;4.50;99.90
14210;DHT22;7188;56.070;12.698;2023-12-20T00:35:25;4.50;99.90
14210;DHT22;7188;56.070;12.698;2023-12-20T00:37:50;4.50;99.90
14210;DHT22;7188;56.070;12.698;2023-12-20T00:40:16;4.50;99.90
14210;DHT22;7188;56.070;12.698;2023-12-20T00:42:42;4.50;99.90
14210;DHT22;7188;56.070;12.698;2023-12-20T00:45:08;4.50;99.90
14210;DHT22;7188;56.070;12.698;2023-12-20T00:47:33;4.50;99.90
14210;DHT22;7188;56.070;12.698;2023-12-20T00:49:59;4.50;99.90
14210;DHT22;7188;56.070;12.698;2023-12-20T00:52:24;4.50;99.90
14210;DHT22;7188;56.070;12.698;2023-12-20T00:54:50;4.50;99.90
14210;DHT22;7188;56.070;12.698;2023-12-20T00:57:16;4.50;99.90
14210;DHT22;7188;56.070;12.698;2023-12-20T00:59:41;4.50;99.90
14210;DHT22;7188;56.070;12.698;2023-12-20T01:02:07;4.50;99.90
14210;DHT22;7188;56.070;12.698;2023-12-20T01:04:34;4.50;99.90
14210;DHT22;7188;56.070;12.698;2023-12-20T01:06:59;4.50;99.90
14210;DHT22;7188;56.070;12.698;2023-12-20T01:09:25;4.50;99.90
14210;DHT22;7188;56.070;12.698;2023-12-20T01:11:53;4.40;99.90
14210;DHT22;7188;56.070;12.698;2023-12-20T01:14:18;4.50;99.90
14210;DHT22;7188;56.070;12.698;2023-12-20T01:16:50;4.50;99.90
14210;DHT22;7188;56.070;12.698;2023-12-20T01:19:15;4.60;99.90
14210;DHT22;7188;56.070;12.698;2023-12-20T01:21:41;4.50;99.90
14210;DHT22;7188;56.070;12.698;2023-12-20T01:24:07;4.60;99.90
14210;DHT22;7188;56.070;12.698;2023-12-20T01:26:32;4.60;99.90
14210;DHT22;7188;56.070;12.698;2023-12-20T01:28:58;4.50;99.90
14210;DHT22;7188;56.070;12.698;2023-12-20T01:31:23;4.50;99.90
14210;DHT22;7188;56.070;12.698;2023-12-20T01:33:49;4.50;99.90
14210;DHT22;7188;56.070;12.698;2023-12-20T01:36:30;4.60;99.90
14210;DHT22;7188;56.070;12.698;2023-12-20T01:38:55;4.60;99.90
14210;DHT22;7188;56.070;12.698;2023-12-20T01:41:21;4.60;99.90
14210;DHT22;7188;56.070;12.698;2023-12-20T01:43:47;4.60;99.90
14210;DHT22;7188;56.070;12.698;2023-12-20T01:46:12;4.60;99.90
14210;DHT22;7188;56.070;12.698;2023-12-20T01:48:38;4.60;99.90
14210;DHT22;7188;56.070;12.698;2023-12-20T01:51:04;4.50;99.90
14210;DHT22;7188;56.070;12.698;2023-12-20T01:53:42;4.50;99.90
14210;DHT22;7188;56.070;12.698;2023-12-20T01:56:09;4.50;99.90
14210;DHT22;7188;56.070;12.698;2023-12-20T01:58:39;4.50;99.90
14210;DHT22;7188;56.070;12.698;2023-12-20T02:01:07;4.40;99.90
14210;DHT22;7188;56.070;12.698;2023-12-20T02:03:32;4.40;99.90
14210;DHT22;7188;56.070;12.698;2023-12-20T02:06:00;4.40;99.90
14210;DHT22;7188;56.070;12.698;2023-12-20T02:08:25;4.40;99.90
14210;DHT22;7188;56.070;12.698;2023-12-20T02:10:51;4.40;99.90
14210;DHT22;7188;56.070;12.698;2023-12-20T02:13:16;4.40;99.90
14210;DHT22;7188;56.070;12.698;2023-12-20T02:15:42;4.40;99.90
14210;DHT22;7188;56.070;12.698;2023-12-20T02:18:09;4.50;99.90
14210;DHT22;7188;56.070;12.698;2023-12-20T02:20:34;4.40;99.90
14210;DHT22;7188;56.070;12.698;2023-12-20T02:23:00;4.40;99.90
14210;DHT22;7188;56.070;12.698;2023-12-20T02:25:25;4.40;99.90
14210;DHT22;7188;56.070;12.698;2023-12-20T02:27:51;4.50;99.90
14210;DHT22;7188;56.070;12.698;2023-12-20T02:30:17;4.50;99.90
14210;DHT22;7188;56.070;12.698;2023-12-20T02:32:52;4.50;99.90
14210;DHT22;7188;56.070;12.698;2023-12-20T02:35:18;4.50;99.90
14210;DHT22;7188;56.070;12.698;2023-12-20T02:37:44;4.60;99.90
14210;DHT22;7188;56.070;12.698;2023-12-20T02:40:10;4.50;99.90
14210;DHT22;7188;56.070;12.698;2023-12-20T02:42:35;4.50;99.90
14210;DHT22;7188;56.070;12.698;2023-12-20T02:45:01;4.60;99.90
14210;DHT22;7188;56.070;12.698;2023-12-20T02:47:39;4.60;99.90
14210;DHT22;7188;56.070;12.698;2023-12-20T02:50:05;4.60;99.90
14210;DHT22;7188;56.070;12.698;2023-12-20T02:52:30;4.60;99.90
14210;DHT22;7188;56.070;12.698;2023-12-20T02:55:02;4.60;99.90
14210;DHT22;7188;56.070;12.698;2023-12-20T02:57:28;4.60;99.90
14210;DHT22;7188;56.070;12.698;2023-12-20T02:59:53;4.70;99.90
14210;DHT22;7188;56.070;12.698;2023-12-20T03:02:19;4.60;99.90
14210;DHT22;7188;56.070;12.698;2023-12-20T03:04:44;4.70;99.90
14210;DHT22;7188;56.070;12.698;2023-12-20T03:07:10;4.60;99.90
14210;DHT22;7188;56.070;12.698;2023-12-20T03:09:37;4.60;99.90
14210;DHT22;7188;56.070;12.698;2023-12-20T03:12:03;4.60;99.90
14210;DHT22;7188;56.070;12.698;2023-12-20T03:14:29;4.60;99.90
14210;DHT22;7188;56.070;12.698;2023-12-20T03:16:55;4.60;99.90
14210;DHT22;7188;56.070;12.698;2023-12-20T03:19:32;4.60;99.90
14210;DHT22;7188;56.070;12.698;2023-12-20T03:21:58;4.50;99.90
14210;DHT22;7188;56.070;12.698;2023-12-20T03:24:26;4.50;99.90
14210;DHT22;7188;56.070;12.698;2023-12-20T03:26:51;4.50;99.90
14210;DHT22;7188;56.070;12.698;2023-12-20T03:29:17;4.60;99.90
14210;DHT22;7188;56.070;12.698;2023-12-20T03:31:43;4.60;99.90
14210;DHT22;7188;56.070;12.698;2023-12-20T03:37:14;4.60;99.90
14210;DHT22;7188;56.070;12.698;2023-12-20T03:39:40;4.70;99.90
14210;DHT22;7188;56.070;12.698;2023-12-20T03:42:06;4.60;99.90
14210;DHT22;7188;56.070;12.698;2023-12-20T03:44:31;4.60;99.90
14210;DHT22;7188;56.070;12.698;2023-12-20T03:46:57;4.60;99.90
14210;DHT22;7188;56.070;12.698;2023-12-20T03:49:41;4.50;99.90
14210;DHT22;7188;56.070;12.698;2023-12-20T03:52:06;4.50;99.90
14210;DHT22;7188;56.070;12.698;2023-12-20T03:54:32;4.50;99.90
14210;DHT22;7188;56.070;12.698;2023-12-20T03:57:23;4.60;99.90
14210;DHT22;7188;56.070;12.698;2023-12-20T03:59:48;4.60;99.90
14210;DHT22;7188;56.070;12.698;2023-12-20T04:02:14;4.50;99.90
14210;DHT22;7188;56.070;12.698;2023-12-20T04:04:40;4.60;99.90
14210;DHT22;7188;56.070;12.698;2023-12-20T04:07:05;4.70;99.90
14210;DHT22;7188;56.070;12.698;2023-12-20T04:09:31;4.60;99.90
14210;DHT22;7188;56.070;12.698;2023-12-20T04:11:56;4.70;99.90
14210;DHT22;7188;56.070;12.698;2023-12-20T04:14:22;4.60;99.90
14210;DHT22;7188;56.070;12.698;2023-12-20T04:16:47;4.70;99.90
14210;DHT22;7188;56.070;12.698;2023-12-20T04:19:13;4.70;99.90
14210;DHT22;7188;56.070;12.698;2023-12-20T04:21:38;4.70;99.90
14210;DHT22;7188;56.070;12.698;2023-12-20T04:24:04;4.80;99.90
14210;DHT22;7188;56.070;12.698;2023-12-20T04:26:30;4.70;99.90
14210;DHT22;7188;56.070;12.698;2023-12-20T04:28:55;4.80;99.90
14210;DHT22;7188;56.070;12.698;2023-12-20T04:31:21;4.80;99.90
14210;DHT22;7188;56.070;12.698;2023-12-20T04:33:46;4.80;99.90
14210;DHT22;7188;56.070;12.698;2023-12-20T04:36:12;4.80;99.90
14210;DHT22;7188;56.070;12.698;2023-12-20T04:38:38;4.90;99.90
14210;DHT22;7188;56.070;12.698;2023-12-20T04:41:03;4.90;99.90
14210;DHT22;7188;56.070;12.698;2023-12-20T04:43:29;4.90;99.90
14210;DHT22;7188;56.070;12.698;2023-12-20T04:45:55;4.90;99.90
14210;DHT22;7188;56.070;12.698;2023-12-20T04:48:20;4.90;99.90
14210;DHT22;7188;56.070;12.698;2023-12-20T04:50:46;5.00;99.90
14210;DHT22;7188;56.070;12.698;2023-12-20T04:53:11;5.00;99.90
14210;DHT22;7188;56.070;12.698;2023-12-20T04:55:37;5.00;99.90
14210;DHT22;7188;56.070;12.698;2023-12-20T04:58:03;5.00;99.90
14210;DHT22;7188;56.070;12.698;2023-12-20T05:00:28;5.00;99.90
14210;DHT22;7188;56.070;12.698;2023-12-20T05:02:54;5.10;99.90
14210;DHT22;7188;56.070;12.698;2023-12-20T05:05:20;5.10;99.90
14210;DHT22;7188;56.070;12.698;2023-12-20T05:07:46;5.10;99.90
14210;DHT22;7188;56.070;12.698;2023-12-20T05:10:11;5.10;99.90
14210;DHT22;7188;56.070;12.698;2023-12-20T05:12:37;5.10;99.90
14210;DHT22;7188;56.070;12.698;2023-12-20T05:15:18;5.10;99.90
14210;DHT22;7188;56.070;12.698;2023-12-20T05:17:43;5.10;99.90
14210;DHT22;7188;56.070;12.698;2023-12-20T05:20:09;5.10;99.90
14210;DHT22;7188;56.070;12.698;2023-12-20T05:22:41;5.10;99.90
14210;DHT22;7188;56.070;12.698;2023-12-20T05:25:07;5.10;99.90
14210;DHT22;7188;56.070;12.698;2023-12-20T05:27:32;5.10;99.90
14210;DHT22;7188;56.070;12.698;2023-12-20T05:29:58;5.00;99.90
14210;DHT22;7188;56.070;12.698;2023-12-20T05:32:24;5.10;99.90
14210;DHT22;7188;56.070;12.698;2023-12-20T05:34:49;5.00;99.90
14210;DHT22;7188;56.070;12.698;2023-12-20T05:37:16;5.00;99.90
14210;DHT22;7188;56.070;12.698;2023-12-20T05:39:41;5.00;99.90
14210;DHT22;7188;56.070;12.698;2023-12-20T05:42:07;5.00;99.90
14210;DHT22;7188;56.070;12.698;2023-12-20T05:44:32;5.00;99.90
14210;DHT22;7188;56.070;12.698;2023-12-20T05:46:58;5.10;99.90
14210;DHT22;7188;56.070;12.698;2023-12-20T05:49:24;5.10;99.90
14210;DHT22;7188;56.070;12.698;2023-12-20T05:51:49;5.00;99.90
14210;DHT22;7188;56.070;12.698;2023-12-20T05:54:16;5.00;99.90
14210;DHT22;7188;56.070;12.698;2023-12-20T05:56:42;5.00;99.90
14210;DHT22;7188;56.070;12.698;2023-12-20T05:59:07;5.00;99.90
14210;DHT22;7188;56.070;12.698;2023-12-20T06:01:33;5.10;99.90
14210;DHT22;7188;56.070;12.698;2023-12-20T06:03:59;5.00;99.90
14210;DHT22;7188;56.070;12.698;2023-12-20T06:06:24;5.00;99.90
14210;DHT22;7188;56.070;12.698;2023-12-20T06:08:50;5.00;99.90
14210;DHT22;7188;56.070;12.698;2023-12-20T06:11:15;5.10;99.90
14210;DHT22;7188;56.070;12.698;2023-12-20T06:13:41;5.00;99.90
14210;DHT22;7188;56.070;12.698;2023-12-20T06:16:07;5.00;99.90
14210;DHT22;7188;56.070;12.698;2023-12-20T06:18:32;5.00;99.90
14210;DHT22;7188;56.070;12.698;2023-12-20T06:20:58;5.00;99.90
14210;DHT22;7188;56.070;12.698;2023-12-20T06:23:24;5.00;99.90
14210;DHT22;7188;56.070;12.698;2023-12-20T06:25:49;5.00;99.90
14210;DHT22;7188;56.070;12.698;2023-12-20T06:28:15;5.00;99.90
14210;DHT22;7188;56.070;12.698;2023-12-20T06:30:41;5.00;99.90
14210;DHT22;7188;56.070;12.698;2023-12-20T06:33:06;5.00;99.90
14210;DHT22;7188;56.070;12.698;2023-12-20T06:35:32;5.00;99.90
14210;DHT22;7188;56.070;12.698;2023-12-20T06:37:58;5.00;99.90
14210;DHT22;7188;56.070;12.698;2023-12-20T06:40:23;5.00;99.90
14210;DHT22;7188;56.070;12.698;2023-12-20T06:42:49;5.00;99.90
14210;DHT22;7188;56.070;12.698;2023-12-20T06:45:14;5.00;99.90
14210;DHT22;7188;56.070;12.698;2023-12-20T06:47:41;4.90;99.90
14210;DHT22;7188;56.070;12.698;2023-12-20T06:50:07;5.00;99.90
14210;DHT22;7188;56.070;12.698;2023-12-20T06:52:34;5.00;99.90
14210;DHT22;7188;56.070;12.698;2023-12-20T06:55:00;5.00;99.90
14210;DHT22;7188;56.070;12.698;2023-12-20T06:57:26;5.00;99.90
14210;DHT22;7188;56.070;12.698;2023-12-20T06:59:52;5.00;99.90
14210;DHT22;7188;56.070;12.698;2023-12-20T07:02:17;5.00;99.90
14210;DHT22;7188;56.070;12.698;2023-12-20T07:04:43;5.00;99.90
14210;DHT22;7188;56.070;12.698;2023-12-20T07:07:09;5.00;99.90
14210;DHT22;7188;56.070;12.698;2023-12-20T07:09:34;5.10;99.90
14210;DHT22;7188;56.070;12.698;2023-12-20T07:12:00;5.00;99.90
14210;DHT22;7188;56.070;12.698;2023-12-20T07:14:25;5.00;99.90
14210;DHT22;7188;56.070;12.698;2023-12-20T07:16:51;5.10;99.90
14210;DHT22;7188;56.070;12.698;2023-12-20T07:19:17;5.00;99.90
14210;DHT22;7188;56.070;12.698;2023-12-20T07:21:43;5.00;99.90
14210;DHT22;7188;56.070;12.698;2023-12-20T07:24:08;5.00;99.90
14210;DHT22;7188;56.070;12.698;2023-12-20T07:26:43;4.90;99.90
14210;DHT22;7188;56.070;12.698;2023-12-20T07:29:09;4.90;99.90
14210;DHT22;7188;56.070;12.698;2023-12-20T07:31:34;4.90;99.90
14210;DHT22;7188;56.070;12.698;2023-12-20T07:34:01;4.90;99.90
14210;DHT22;7188;56.070;12.698;2023-12-20T07:36:27;4.90;99.90
14210;DHT22;7188;56.070;12.698;2023-12-20T07:38:52;4.90;99.90
14210;DHT22;7188;56.070;12.698;2023-12-20T07:41:18;4.90;99.90
14210;DHT22;7188;56.070;12.698;2023-12-20T07:43:46;4.90;99.90
14210;DHT22;7188;56.070;12.698;2023-12-20T07:46:12;4.80;99.90
14210;DHT22;7188;56.070;12.698;2023-12-20T07:48:37;4.90;99.90
14210;DHT22;7188;56.070;12.698;2023-12-20T07:51:06;4.80;99.90
14210;DHT22;7188;56.070;12.698;2023-12-20T07:53:33;4.80;99.90
14210;DHT22;7188;56.070;12.698;2023-12-20T07:55:59;4.90;99.90
14210;DHT22;7188;56.070;12.698;2023-12-20T07:58:25;4.80;99.90
14210;DHT22;7188;56.070;12.698;2023-12-20T08:00:50;4.70;99.90
14210;DHT22;7188;56.070;12.698;2023-12-20T08:03:16;4.70;99.90
14210;DHT22;7188;56.070;12.698;2023-12-20T08:05:42;4.60;99.90
14210;DHT22;7188;56.070;12.698;2023-12-20T08:08:07;4.60;99.90
14210;DHT22;7188;56.070;12.698;2023-12-20T08:10:33;4.60;99.90
14210;DHT22;7188;56.070;12.698;2023-12-20T08:12:58;4.60;99.90
14210;DHT22;7188;56.070;12.698;2023-12-20T08:15:24;4.60;99.90
14210;DHT22;7188;56.070;12.698;2023-12-20T08:17:49;4.60;99.90
14210;DHT22;7188;56.070;12.698;2023-12-20T08:20:18;4.60;99.90
14210;DHT22;7188;56.070;12.698;2023-12-20T08:22:44;4.60;99.90
14210;DHT22;7188;56.070;12.698;2023-12-20T08:25:09;4.60;99.90
14210;DHT22;7188;56.070;12.698;2023-12-20T08:27:41;4.60;99.90
14210;DHT22;7188;56.070;12.698;2023-12-20T08:30:08;4.60;99.90
14210;DHT22;7188;56.070;12.698;2023-12-20T08:32:34;4.60;99.90
14210;DHT22;7188;56.070;12.698;2023-12-20T08:35:00;4.50;99.90
14210;DHT22;7188;56.070;12.698;2023-12-20T08:37:25;4.50;99.90
14210;DHT22;7188;56.070;12.698;2023-12-20T08:39:51;4.50;99.90
14210;DHT22;7188;56.070;12.698;2023-12-20T08:42:16;4.50;99.90
14210;DHT22;7188;56.070;12.698;2023-12-20T08:44:42;4.50;99.90
14210;DHT22;7188;56.070;12.698;2023-12-20T08:47:08;4.40;99.90
14210;DHT22;7188;56.070;12.698;2023-12-20T08:49:33;4.40;99.90
14210;DHT22;7188;56.070;12.698;2023-12-20T08:51:59;4.40;99.90
14210;DHT22;7188;56.070;12.698;2023-12-20T08:54:25;4.40;99.90
14210;DHT22;7188;56.070;12.698;2023-12-20T08:56:50;4.50;99.90
14210;DHT22;7188;56.070;12.698;2023-12-20T08:59:16;4.40;99.90
14210;DHT22;7188;56.070;12.698;2023-12-20T09:01:41;4.50;99.90
14210;DHT22;7188;56.070;12.698;2023-12-20T09:04:07;4.50;99.90
14210;DHT22;7188;56.070;12.698;2023-12-20T09:06:33;4.50;99.90
14210;DHT22;7188;56.070;12.698;2023-12-20T09:08:58;4.40;99.90
14210;DHT22;7188;56.070;12.698;2023-12-20T09:11:24;4.40;99.90
14210;DHT22;7188;56.070;12.698;2023-12-20T09:13:49;4.40;99.90
14210;DHT22;7188;56.070;12.698;2023-12-20T09:16:15;4.40;99.90
14210;DHT22;7188;56.070;12.698;2023-12-20T09:18:41;4.40;99.90
14210;DHT22;7188;56.070;12.698;2023-12-20T09:21:07;4.40;99.90
14210;DHT22;7188;56.070;12.698;2023-12-20T09:23:33;4.40;99.90
14210;DHT22;7188;56.070;12.698;2023-12-20T09:25:58;4.40;99.90
14210;DHT22;7188;56.070;12.698;2023-12-20T09:28:24;4.40;99.90
14210;DHT22;7188;56.070;12.698;2023-12-20T09:30:49;4.40;99.90
14210;DHT22;7188;56.070;12.698;2023-12-20T09:33:15;4.40;99.90
14210;DHT22;7188;56.070;12.698;2023-12-20T09:35:42;4.50;99.90
14210;DHT22;7188;56.070;12.698;2023-12-20T09:38:07;4.40;99.90
14210;DHT22;7188;56.070;12.698;2023-12-20T09:40:35;4.50;99.90
14210;DHT22;7188;56.070;12.698;2023-12-20T09:43:08;4.50;99.90
14210;DHT22;7188;56.070;12.698;2023-12-20T09:45:34;4.40;99.90
14210;DHT22;7188;56.070;12.698;2023-12-20T09:48:00;4.40;99.90
14210;DHT22;7188;56.070;12.698;2023-12-20T09:50:26;4.50;99.90
14210;DHT22;7188;56.070;12.698;2023-12-20T09:52:53;4.50;99.90
14210;DHT22;7188;56.070;12.698;2023-12-20T09:55:20;4.50;99.90
14210;DHT22;7188;56.070;12.698;2023-12-20T09:57:49;4.50;99.90
14210;DHT22;7188;56.070;12.698;2023-12-20T10:00:15;4.50;99.90
14210;DHT22;7188;56.070;12.698;2023-12-20T10:03:00;4.50;99.90
14210;DHT22;7188;56.070;12.698;2023-12-20T10:05:31;4.50;99.90
14210;DHT22;7188;56.070;12.698;2023-12-20T10:07:58;4.50;99.90
14210;DHT22;7188;56.070;12.698;2023-12-20T10:10:24;4.50;99.90
14210;DHT22;7188;56.070;12.698;2023-12-20T10:15:29;4.50;99.90
14210;DHT22;7188;56.070;12.698;2023-12-20T10:17:54;4.50;99.90
14210;DHT22;7188;56.070;12.698;2023-12-20T10:20:20;4.50;99.90
14210;DHT22;7188;56.070;12.698;2023-12-20T10:22:46;4.40;99.90
14210;DHT22;7188;56.070;12.698;2023-12-20T10:25:13;4.50;99.90
14210;DHT22;7188;56.070;12.698;2023-12-20T10:28:16;4.50;99.90
14210;DHT22;7188;56.070;12.698;2023-12-20T10:30:44;4.40;99.90
14210;DHT22;7188;56.070;12.698;2023-12-20T10:33:11;4.40;99.90
14210;DHT22;7188;56.070;12.698;2023-12-20T10:35:38;4.40;99.90
14210;DHT22;7188;56.070;12.698;2023-12-20T10:38:05;4.40;99.90
14210;DHT22;7188;56.070;12.698;2023-12-20T10:40:34;4.50;99.90
14210;DHT22;7188;56.070;12.698;2023-12-20T10:43:02;4.50;99.90
14210;DHT22;7188;56.070;12.698;2023-12-20T10:45:28;4.50;99.90
14210;DHT22;7188;56.070;12.698;2023-12-20T10:47:54;4.50;99.90
14210;DHT22;7188;56.070;12.698;2023-12-20T10:50:20;4.60;99.90
14210;DHT22;7188;56.070;12.698;2023-12-20T10:52:47;4.60;99.90
14210;DHT22;7188;56.070;12.698;2023-12-20T10:55:13;4.60;99.90
14210;DHT22;7188;56.070;12.698;2023-12-20T10:57:39;4.60;99.90
14210;DHT22;7188;56.070;12.698;2023-12-20T11:00:10;4.60;99.90
14210;DHT22;7188;56.070;12.698;2023-12-20T11:02:40;4.60;99.90
14210;DHT22;7188;56.070;12.698;2023-12-20T11:07:49;4.60;99.90
14210;DHT22;7188;56.070;12.698;2023-12-20T11:10:22;4.60;99.90
14210;DHT22;7188;56.070;12.698;2023-12-20T11:12:59;4.60;99.90
14210;DHT22;7188;56.070;12.698;2023-12-20T11:15:26;4.50;99.90
14210;DHT22;7188;56.070;12.698;2023-12-20T11:17:56;4.50;99.90
14210;DHT22;7188;56.070;12.698;2023-12-20T11:20:39;4.50;99.90
14210;DHT22;7188;56.070;12.698;2023-12-20T11:23:06;4.40;99.90
14210;DHT22;7188;56.070;12.698;2023-12-20T11:25:47;4.00;99.90
14210;DHT22;7188;56.070;12.698;2023-12-20T11:28:14;3.90;99.90
14210;DHT22;7188;56.070;12.698;2023-12-20T11:33:22;3.90;99.90
14210;DHT22;7188;56.070;12.698;2023-12-20T11:35:47;3.90;99.90
14210;DHT22;7188;56.070;12.698;2023-12-20T11:38:15;4.00;99.90
14210;DHT22;7188;56.070;12.698;2023-12-20T11:40:48;4.00;99.90
14210;DHT22;7188;56.070;12.698;2023-12-20T11:43:32;4.10;99.90
14210;DHT22;7188;56.070;12.698;2023-12-20T11:46:04;4.10;99.90
14210;DHT22;7188;56.070;12.698;2023-12-20T11:48:31;4.10;99.90
14210;DHT22;7188;56.070;12.698;2023-12-20T11:50:57;4.10;99.90
14210;DHT22;7188;56.070;12.698;2023-12-20T11:53:23;4.20;99.90
14210;DHT22;7188;56.070;12.698;2023-12-20T11:55:57;4.20;99.90
14210;DHT22;7188;56.070;12.698;2023-12-20T11:58:23;4.20;99.90
14210;DHT22;7188;56.070;12.698;2023-12-20T12:00:50;4.20;99.90
14210;DHT22;7188;56.070;12.698;2023-12-20T12:03:17;4.20;99.90
14210;DHT22;7188;56.070;12.698;2023-12-20T12:05:42;4.20;99.90
14210;DHT22;7188;56.070;12.698;2023-12-20T12:08:08;4.20;99.90
14210;DHT22;7188;56.070;12.698;2023-12-20T12:10:33;4.20;99.90
14210;DHT22;7188;56.070;12.698;2023-12-20T12:12:59;4.20;99.90
14210;DHT22;7188;56.070;12.698;2023-12-20T12:15:26;4.20;99.90
14210;DHT22;7188;56.070;12.698;2023-12-20T12:18:04;4.20;99.90
14210;DHT22;7188;56.070;12.698;2023-12-20T12:20:30;4.20;99.90
14210;DHT22;7188;56.070;12.698;2023-12-20T12:25:25;4.00;99.90
14210;DHT22;7188;56.070;12.698;2023-12-20T12:27:51;4.00;99.90
14210;DHT22;7188;56.070;12.698;2023-12-20T12:30:17;4.00;99.90
14210;DHT22;7188;56.070;12.698;2023-12-20T12:32:44;4.10;99.90
14210;DHT22;7188;56.070;12.698;2023-12-20T12:35:10;4.10;99.90
14210;DHT22;7188;56.070;12.698;2023-12-20T12:37:37;4.20;99.90
14210;DHT22;7188;56.070;12.698;2023-12-20T12:40:19;4.20;99.90
14210;DHT22;7188;56.070;12.698;2023-12-20T12:42:45;4.20;99.90
14210;DHT22;7188;56.070;12.698;2023-12-20T12:45:11;4.20;99.90
14210;DHT22;7188;56.070;12.698;2023-12-20T12:47:37;4.20;99.90
14210;DHT22;7188;56.070;12.698;2023-12-20T12:50:03;4.20;99.90
14210;DHT22;7188;56.070;12.698;2023-12-20T12:52:30;4.30;99.90
14210;DHT22;7188;56.070;12.698;2023-12-20T12:54:56;4.20;99.90
14210;DHT22;7188;56.070;12.698;2023-12-20T12:57:22;4.20;99.90
14210;DHT22;7188;56.070;12.698;2023-12-20T12:59:47;4.20;99.90
14210;DHT22;7188;56.070;12.698;2023-12-20T13:02:13;4.20;99.90
14210;DHT22;7188;56.070;12.698;2023-12-20T13:04:40;4.20;99.90
14210;DHT22;7188;56.070;12.698;2023-12-20T13:07:06;4.20;99.90
14210;DHT22;7188;56.070;12.698;2023-12-20T13:09:32;4.20;99.90
14210;DHT22;7188;56.070;12.698;2023-12-20T13:11:58;4.20;99.90
14210;DHT22;7188;56.070;12.698;2023-12-20T13:14:24;4.20;99.90
14210;DHT22;7188;56.070;12.698;2023-12-20T13:16:50;4.20;99.90
14210;DHT22;7188;56.070;12.698;2023-12-20T13:19:15;4.20;99.90
14210;DHT22;7188;56.070;12.698;2023-12-20T13:21:41;4.20;99.90
14210;DHT22;7188;56.070;12.698;2023-12-20T13:24:06;4.20;99.90
14210;DHT22;7188;56.070;12.698;2023-12-20T13:26:32;4.20;99.90
14210;DHT22;7188;56.070;12.698;2023-12-20T13:29:07;4.20;99.90
14210;DHT22;7188;56.070;12.698;2023-12-20T13:31:33;4.20;99.90
14210;DHT22;7188;56.070;12.698;2023-12-20T13:33:58;4.20;99.90
14210;DHT22;7188;56.070;12.698;2023-12-20T13:36:36;4.20;99.90
14210;DHT22;7188;56.070;12.698;2023-12-20T13:39:03;4.20;99.90
14210;DHT22;7188;56.070;12.698;2023-12-20T13:41:30;4.20;99.90
14210;DHT22;7188;56.070;12.698;2023-12-20T13:43:56;4.20;99.90
14210;DHT22;7188;56.070;12.698;2023-12-20T13:46:21;4.30;99.90
14210;DHT22;7188;56.070;12.698;2023-12-20T13:48:47;4.30;99.90
14210;DHT22;7188;56.070;12.698;2023-12-20T13:51:12;4.20;99.90
14210;DHT22;7188;56.070;12.698;2023-12-20T13:53:38;4.30;99.90
14210;DHT22;7188;56.070;12.698;2023-12-20T13:56:04;4.30;99.90
14210;DHT22;7188;56.070;12.698;2023-12-20T13:58:30;4.20;99.90
14210;DHT22;7188;56.070;12.698;2023-12-20T14:00:56;4.20;99.90
14210;DHT22;7188;56.070;12.698;2023-12-20T14:03:21;4.20;99.90
14210;DHT22;7188;56.070;12.698;2023-12-20T14:05:47;4.10;99.90
14210;DHT22;7188;56.070;12.698;2023-12-20T14:08:12;4.10;99.90
14210;DHT22;7188;56.070;12.698;2023-12-20T14:10:38;4.10;99.90
14210;DHT22;7188;56.070;12.698;2023-12-20T14:13:04;4.10;99.90
14210;DHT22;7188;56.070;12.698;2023-12-20T14:15:30;4.10;99.90
14210;DHT22;7188;56.070;12.698;2023-12-20T14:18:05;4.10;99.90
14210;DHT22;7188;56.070;12.698;2023-12-20T14:20:34;4.10;99.90
14210;DHT22;7188;56.070;12.698;2023-12-20T14:23:01;4.10;99.90
14210;DHT22;7188;56.070;12.698;2023-12-20T14:25:26;4.10;99.90
14210;DHT22;7188;56.070;12.698;2023-12-20T14:28:01;4.00;99.90
14210;DHT22;7188;56.070;12.698;2023-12-20T14:30:27;4.00;99.90
14210;DHT22;7188;56.070;12.698;2023-12-20T14:32:53;4.00;99.90
14210;DHT22;7188;56.070;12.698;2023-12-20T14:35:18;3.90;99.90
14210;DHT22;7188;56.070;12.698;2023-12-20T14:37:45;3.90;99.90
14210;DHT22;7188;56.070;12.698;2023-12-20T14:40:11;3.90;99.90
14210;DHT22;7188;56.070;12.698;2023-12-20T14:42:49;3.90;99.90
14210;DHT22;7188;56.070;12.698;2023-12-20T14:45:16;3.80;99.90
14210;DHT22;7188;56.070;12.698;2023-12-20T14:47:41;3.80;99.90
14210;DHT22;7188;56.070;12.698;2023-12-20T14:50:07;3.80;99.90
14210;DHT22;7188;56.070;12.698;2023-12-20T14:52:33;3.80;99.90
14210;DHT22;7188;56.070;12.698;2023-12-20T14:55:00;3.80;99.90
14210;DHT22;7188;56.070;12.698;2023-12-20T14:57:26;3.70;99.90
14210;DHT22;7188;56.070;12.698;2023-12-20T14:59:52;3.70;99.90
14210;DHT22;7188;56.070;12.698;2023-12-20T15:02:17;3.70;99.90
14210;DHT22;7188;56.070;12.698;2023-12-20T15:04:43;3.70;99.90
14210;DHT22;7188;56.070;12.698;2023-12-20T15:07:08;3.70;99.90
14210;DHT22;7188;56.070;12.698;2023-12-20T15:09:34;3.70;99.90
14210;DHT22;7188;56.070;12.698;2023-12-20T15:11:59;3.70;99.90
14210;DHT22;7188;56.070;12.698;2023-12-20T15:14:26;3.70;99.90
14210;DHT22;7188;56.070;12.698;2023-12-20T15:16:52;3.70;99.90
14210;DHT22;7188;56.070;12.698;2023-12-20T15:19:17;3.70;99.90
14210;DHT22;7188;56.070;12.698;2023-12-20T15:21:43;3.60;99.90
14210;DHT22;7188;56.070;12.698;2023-12-20T15:24:09;3.60;99.90
14210;DHT22;7188;56.070;12.698;2023-12-20T15:26:42;3.60;99.90
14210;DHT22;7188;56.070;12.698;2023-12-20T15:29:08;3.60;99.90
14210;DHT22;7188;56.070;12.698;2023-12-20T15:31:36;3.60;99.90
14210;DHT22;7188;56.070;12.698;2023-12-20T15:34:04;3.60;99.90
14210;DHT22;7188;56.070;12.698;2023-12-20T15:36:29;3.50;99.90
14210;DHT22;7188;56.070;12.698;2023-12-20T15:38:55;3.50;99.90
14210;DHT22;7188;56.070;12.698;2023-12-20T15:41:21;3.50;99.90
14210;DHT22;7188;56.070;12.698;2023-12-20T15:43:47;3.40;99.90
14210;DHT22;7188;56.070;12.698;2023-12-20T15:46:13;3.40;99.90
14210;DHT22;7188;56.070;12.698;2023-12-20T15:48:39;3.40;99.90
14210;DHT22;7188;56.070;12.698;2023-12-20T15:51:08;3.40;99.90
14210;DHT22;7188;56.070;12.698;2023-12-20T15:53:34;3.40;99.90
14210;DHT22;7188;56.070;12.698;2023-12-20T15:56:01;3.40;99.90